createdAt,value
2019-01-12T00:01:12.433Z,98662.42
2019-01-12T00:03:40.831Z,98651.70
2019-01-12T00:06:09.225Z,98651.37
2019-01-12T00:08:37.628Z,98657.52
2019-01-12T00:11:06.324Z,98658.80
2019-01-12T00:13:34.715Z,98656.34
2019-01-12T00:16:03.406Z,98653.81
2019-01-12T00:18:31.861Z,98657.31
2019-01-12T00:21:00.250Z,98655.70
2019-01-12T00:23:28.654Z,98657.84
2019-01-12T00:25:57.044Z,98650.67
2019-01-12T00:28:25.432Z,98651.10
2019-01-12T00:30:54.181Z,98655.53
2019-01-12T00:33:41.907Z,98654.41
2019-01-12T00:36:10.308Z,98651.94
2019-01-12T00:38:38.697Z,98661.53
2019-01-12T00:41:07.357Z,98665.59
2019-01-12T00:43:35.761Z,98655.62
2019-01-12T00:46:04.284Z,98657.11
2019-01-12T00:48:32.673Z,98656.23
2019-01-12T00:51:01.076Z,98663.22
2019-01-12T00:53:29.465Z,98658.47
2019-01-12T00:55:58.092Z,98658.09
2019-01-12T00:58:26.492Z,98654.66
2019-01-12T01:00:54.949Z,98654.59
2019-01-12T01:03:23.331Z,98666.84
2019-01-12T01:05:52.060Z,98654.98
2019-01-12T01:08:20.452Z,98664.11
2019-01-12T01:11:08.481Z,98667.92
2019-01-12T01:13:36.939Z,98676.78
2019-01-12T01:16:05.466Z,98664.05
2019-01-12T01:18:53.380Z,98670.64
2019-01-12T01:21:21.771Z,98671.50
2019-01-12T01:23:50.162Z,98672.08
2019-01-12T01:26:19.027Z,98671.72
2019-01-12T01:28:47.716Z,98673.08
2019-01-12T01:31:16.354Z,98680.80
2019-01-12T01:33:44.752Z,98680.85
2019-01-12T01:36:13.140Z,98685.00
2019-01-12T01:38:41.548Z,98686.98
2019-01-12T01:41:10.224Z,98689.14
2019-01-12T01:43:38.612Z,98690.86
2019-01-12T01:46:07.088Z,98693.86
2019-01-12T01:48:35.477Z,98686.09
2019-01-12T01:51:03.933Z,98683.30
2019-01-12T01:53:32.337Z,98689.73
2019-01-12T01:56:00.729Z,98688.34
2019-01-12T01:58:29.118Z,98687.77
2019-01-12T02:00:57.520Z,98688.67
2019-01-12T02:03:25.904Z,98686.23
2019-01-12T02:05:54.290Z,98689.96
2019-01-12T02:08:22.699Z,98684.15
2019-01-12T02:10:51.086Z,98687.52
2019-01-12T02:13:19.762Z,98686.91
2019-01-12T02:15:48.168Z,98692.42
2019-01-12T02:18:16.556Z,98686.98
2019-01-12T02:20:44.944Z,98683.94
2019-01-12T02:23:13.351Z,98685.75
2019-01-12T02:25:41.743Z,98683.16
2019-01-12T02:28:10.128Z,98677.88
2019-01-12T02:30:38.542Z,98684.88
2019-01-12T02:33:06.921Z,98689.98
2019-01-12T02:35:35.309Z,98679.95
2019-01-12T02:38:03.784Z,98682.23
2019-01-12T02:40:32.177Z,98675.41
2019-01-12T02:43:00.819Z,98677.88
2019-01-12T02:45:29.223Z,98678.30
2019-01-12T02:47:57.879Z,98673.65
2019-01-12T02:50:26.504Z,98669.27
2019-01-12T02:52:54.908Z,98670.83
2019-01-12T02:55:23.303Z,98670.70
2019-01-12T02:57:52.012Z,98667.66
2019-01-12T03:00:20.469Z,98657.05
2019-01-12T03:03:08.212Z,98660.52
2019-01-12T03:05:36.603Z,98659.74
2019-01-12T03:08:04.985Z,98663.38
2019-01-12T03:10:33.670Z,98661.02
2019-01-12T03:13:02.057Z,98653.45
2019-01-12T03:15:30.512Z,98656.10
2019-01-12T03:18:18.258Z,98647.19
2019-01-12T03:20:46.948Z,98653.08
2019-01-12T03:23:15.336Z,98656.53
2019-01-12T03:25:43.745Z,98647.97
2019-01-12T03:28:12.392Z,98650.36
2019-01-12T03:31:00.372Z,98646.55
2019-01-12T03:33:28.784Z,98640.81
2019-01-12T03:35:57.238Z,98642.33
2019-01-12T03:38:27.040Z,98641.07
2019-01-12T03:40:56.005Z,98642.59
2019-01-12T03:43:24.388Z,98642.11
2019-01-12T03:45:53.155Z,98649.69
2019-01-12T03:48:21.846Z,98644.35
2019-01-12T03:50:50.311Z,98637.52
2019-01-12T03:53:18.927Z,98641.05
2019-01-12T03:55:47.325Z,98638.46
2019-01-12T03:58:15.714Z,98642.06
2019-01-12T04:00:44.117Z,98641.18
2019-01-12T04:03:12.506Z,98636.53
2019-01-12T04:05:40.894Z,98643.73
2019-01-12T04:08:09.297Z,98644.00
2019-01-12T04:10:37.920Z,98649.84
2019-01-12T04:13:06.321Z,98646.34
2019-01-12T04:15:34.792Z,98648.19
2019-01-12T04:18:03.180Z,98640.75
2019-01-12T04:20:31.892Z,98636.83
2019-01-12T04:23:00.284Z,98631.61
2019-01-12T04:25:33.673Z,98632.39
2019-01-12T04:27:59.087Z,98634.64
2019-01-12T04:30:27.472Z,98642.05
2019-01-12T04:32:55.933Z,98646.13
2019-01-12T04:35:24.733Z,98640.59
2019-01-12T04:37:53.412Z,98642.06
2019-01-12T04:40:21.823Z,98646.05
2019-01-12T04:42:50.211Z,98637.72
2019-01-12T04:45:18.592Z,98631.94
2019-01-12T04:47:47.335Z,98635.38
2019-01-12T04:50:55.635Z,98632.91
2019-01-12T04:53:24.055Z,98632.65
2019-01-12T04:55:52.439Z,98627.16
2019-01-12T04:58:20.827Z,98627.95
2019-01-12T05:00:49.574Z,98627.42
2019-01-12T05:03:17.959Z,98624.55
2019-01-12T05:05:46.354Z,98625.50
2019-01-12T05:08:15.020Z,98621.34
2019-01-12T05:10:43.701Z,98620.73
2019-01-12T05:13:12.083Z,98619.53
2019-01-12T05:15:40.488Z,98619.72
2019-01-12T05:18:08.865Z,98624.06
2019-01-12T05:20:37.530Z,98620.78
2019-01-12T05:23:06.171Z,98620.85
2019-01-12T05:25:34.550Z,98624.70
2019-01-12T05:28:02.999Z,98623.53
2019-01-12T05:30:31.398Z,98627.66
2019-01-12T05:32:59.779Z,98624.63
2019-01-12T05:35:28.170Z,98624.33
2019-01-12T05:37:56.562Z,98625.42
2019-01-12T05:40:24.957Z,98622.70
2019-01-12T05:42:53.335Z,98626.86
2019-01-12T05:45:21.733Z,98629.58
2019-01-12T05:47:50.113Z,98629.28
2019-01-12T05:50:18.506Z,98625.54
2019-01-12T05:52:47.173Z,98630.48
2019-01-12T05:55:15.858Z,98629.89
2019-01-12T05:57:44.248Z,98630.91
2019-01-12T06:00:52.570Z,98635.41
2019-01-12T06:03:20.959Z,98633.41
2019-01-12T06:05:49.611Z,98635.41
2019-01-12T06:08:18.016Z,98634.23
2019-01-12T06:10:46.675Z,98630.53
2019-01-12T06:13:15.359Z,98638.05
2019-01-12T06:15:43.831Z,98636.23
2019-01-12T06:18:12.213Z,98638.97
2019-01-12T06:20:40.600Z,98638.44
2019-01-12T06:23:28.342Z,98632.12
2019-01-12T06:26:03.653Z,98632.72
2019-01-12T06:28:26.844Z,98633.09
2019-01-12T06:30:55.258Z,98639.27
2019-01-12T06:33:23.632Z,98635.52
2019-01-12T06:35:52.388Z,98630.86
2019-01-12T06:38:20.795Z,98636.84
2019-01-12T06:40:49.188Z,98638.43
2019-01-12T06:43:17.593Z,98643.58
2019-01-12T06:45:45.981Z,98644.94
2019-01-12T06:48:14.367Z,98642.18
2019-01-12T06:50:42.763Z,98642.14
2019-01-12T06:53:11.154Z,98638.02
2019-01-12T06:55:39.546Z,98646.56
2019-01-12T06:58:07.954Z,98643.01
2019-01-12T07:00:36.323Z,98638.86
2019-01-12T07:03:04.855Z,98638.36
2019-01-12T07:05:33.253Z,98639.64
2019-01-12T07:08:01.639Z,98645.09
2019-01-12T07:10:30.024Z,98642.41
2019-01-12T07:12:58.671Z,98650.61
2019-01-12T07:15:27.056Z,98649.21
2019-01-12T07:17:55.443Z,98648.08
2019-01-12T07:20:23.843Z,98647.20
2019-01-12T07:22:52.495Z,98654.02
2019-01-12T07:25:21.206Z,98652.39
2019-01-12T07:27:49.864Z,98657.72
2019-01-12T07:30:58.435Z,98656.09
2019-01-12T07:33:26.812Z,98647.59
2019-01-12T07:35:55.453Z,98663.73
2019-01-12T07:38:23.856Z,98655.76
2019-01-12T07:40:52.517Z,98670.28
2019-01-12T07:43:20.919Z,98671.94
2019-01-12T07:45:49.578Z,98673.23
2019-01-12T07:48:18.204Z,98675.42
2019-01-12T07:50:46.602Z,98673.45
2019-01-12T07:53:14.993Z,98672.14
2019-01-12T07:55:43.712Z,98678.75
2019-01-12T07:58:12.111Z,98683.41
2019-01-12T08:00:40.500Z,98680.19
2019-01-12T08:03:08.907Z,98682.65
2019-01-12T08:05:37.634Z,98682.91
2019-01-12T08:08:06.320Z,98683.48
2019-01-12T08:10:34.797Z,98687.53
2019-01-12T08:13:03.184Z,98683.78
2019-01-12T08:15:31.969Z,98679.70
2019-01-12T08:18:00.378Z,98678.87
2019-01-12T08:20:28.764Z,98678.94
2019-01-12T08:22:57.413Z,98679.44
2019-01-12T08:25:26.048Z,98683.06
2019-01-12T08:27:54.505Z,98679.44
2019-01-12T08:30:42.245Z,98677.02
2019-01-12T08:33:10.628Z,98678.34
2019-01-12T08:35:39.017Z,98685.75
2019-01-12T08:38:07.487Z,98687.00
2019-01-12T08:40:35.877Z,98682.34
2019-01-12T08:43:04.610Z,98683.25
2019-01-12T08:45:33.012Z,98679.73
2019-01-12T08:48:01.405Z,98683.09
2019-01-12T08:50:29.812Z,98683.06
2019-01-12T08:52:58.205Z,98689.91
2019-01-12T08:55:46.187Z,98678.78
2019-01-12T08:58:14.580Z,98676.22
2019-01-12T09:00:43.233Z,98679.88
2019-01-12T09:03:11.639Z,98680.91
2019-01-12T09:05:40.316Z,98678.28
2019-01-12T09:08:08.990Z,98680.20
2019-01-12T09:10:37.426Z,98681.60
2019-01-12T09:13:05.785Z,98675.26
2019-01-12T09:15:34.173Z,98675.02
2019-01-12T09:18:02.577Z,98678.38
2019-01-12T09:20:30.968Z,98674.45
2019-01-12T09:22:59.664Z,98675.38
2019-01-12T09:25:28.069Z,98673.13
2019-01-12T09:27:56.463Z,98661.75
2019-01-12T09:30:24.847Z,98665.28
2019-01-12T09:35:48.395Z,98663.95
2019-01-12T09:38:17.076Z,98659.30
2019-01-12T09:40:45.464Z,98662.61
2019-01-12T09:43:13.870Z,98679.47
2019-01-12T09:45:42.518Z,98677.84
2019-01-12T09:48:10.907Z,98678.88
2019-01-12T09:50:39.313Z,98671.23
2019-01-12T09:53:07.716Z,98676.69
2019-01-12T09:55:36.443Z,98674.31
2019-01-12T09:58:04.849Z,98668.20
2019-01-12T10:00:33.313Z,98661.19
2019-01-12T10:03:21.055Z,98656.33
2019-01-12T10:05:49.446Z,98658.61
2019-01-12T10:08:17.849Z,98657.52
2019-01-12T10:10:46.484Z,98655.03
2019-01-12T10:13:15.164Z,98655.91
2019-01-12T10:15:43.853Z,98653.77
2019-01-12T10:18:12.476Z,98646.39
2019-01-12T10:20:40.868Z,98646.46
2019-01-12T10:23:28.616Z,98647.22
2019-01-12T10:25:57.057Z,98643.95
2019-01-12T10:28:25.719Z,98640.45
2019-01-12T10:30:54.123Z,98629.23
2019-01-12T10:33:22.776Z,98628.91
2019-01-12T10:35:51.166Z,98621.52
2019-01-12T10:38:59.489Z,98616.08
2019-01-12T10:41:27.893Z,98607.12
2019-01-12T10:43:56.287Z,98607.09
2019-01-12T10:46:25.021Z,98607.45
2019-01-12T10:48:53.408Z,98601.80
2019-01-12T10:51:22.081Z,98593.13
2019-01-12T10:53:50.872Z,98598.83
2019-01-12T10:56:19.556Z,98587.12
2019-01-12T10:58:48.184Z,98587.14
2019-01-12T11:01:16.928Z,98580.59
2019-01-12T11:03:45.342Z,98578.14
2019-01-12T11:06:13.996Z,98567.25
2019-01-12T11:08:42.475Z,98552.16
2019-01-12T11:11:11.111Z,98549.27
2019-01-12T11:13:39.535Z,98546.83
2019-01-12T11:16:08.079Z,98540.17
2019-01-12T11:18:36.475Z,98538.85
2019-01-12T11:21:04.870Z,98534.19
2019-01-12T11:23:33.348Z,98531.98
2019-01-12T11:26:01.740Z,98538.59
2019-01-12T11:28:30.128Z,98536.56
2019-01-12T11:30:58.534Z,98529.50
2019-01-12T11:33:26.925Z,98528.64
2019-01-12T11:35:55.317Z,98531.66
2019-01-12T11:38:23.721Z,98529.52
2019-01-12T11:40:52.420Z,98533.81
2019-01-12T11:43:20.817Z,98532.82
2019-01-12T11:45:50.711Z,98530.87
2019-01-12T11:48:19.335Z,98503.92
2019-01-12T11:50:47.726Z,98501.72
2019-01-12T11:53:16.129Z,98505.83
2019-01-12T11:55:44.522Z,98504.73
2019-01-12T11:58:12.914Z,98484.77
2019-01-12T12:00:41.551Z,98476.08
2019-01-12T12:03:09.944Z,98468.17
2019-01-12T12:05:38.333Z,98461.87
2019-01-12T12:08:46.646Z,98451.78
2019-01-12T12:11:15.038Z,98440.63
2019-01-12T12:13:43.432Z,98433.53
2019-01-12T12:16:43.114Z,98434.59
2019-01-12T12:19:01.296Z,98425.34
2019-01-12T12:21:29.968Z,98428.33
2019-01-12T12:23:58.381Z,98418.52
2019-01-12T12:26:26.777Z,98427.00
2019-01-12T12:28:55.512Z,98420.45
2019-01-12T12:31:23.918Z,98420.95
2019-01-12T12:36:41.410Z,98413.61
2019-01-12T12:39:09.973Z,98412.22
2019-01-12T12:41:38.365Z,98413.06
2019-01-12T12:44:06.846Z,98411.94
2019-01-12T12:46:35.569Z,98413.00
2019-01-12T12:51:59.256Z,98410.57
2019-01-12T12:54:27.941Z,98408.95
2019-01-12T12:56:56.339Z,98398.58
2019-01-12T12:59:44.082Z,98395.31
2019-01-12T13:02:12.541Z,98392.05
2019-01-12T13:04:40.953Z,98395.60
2019-01-12T13:07:09.595Z,98387.41
2019-01-12T13:09:37.988Z,98385.77
2019-01-12T13:14:45.715Z,98389.88
2019-01-12T13:17:14.353Z,98392.87
2019-01-12T13:19:43.063Z,98387.41
2019-01-12T13:22:11.471Z,98389.03
2019-01-12T13:24:40.103Z,98390.11
2019-01-12T13:27:08.814Z,98381.64
2019-01-12T13:29:37.468Z,98387.15
2019-01-12T13:32:05.857Z,98376.50
2019-01-12T13:34:34.250Z,98369.69
2019-01-12T13:37:02.661Z,98373.48
2019-01-12T13:39:32.174Z,98370.19
2019-01-12T13:42:01.161Z,98370.47
2019-01-12T13:44:29.563Z,98373.49
2019-01-12T13:46:57.974Z,98368.84
2019-01-12T13:49:26.370Z,98366.39
2019-01-12T13:51:54.782Z,98357.94
2019-01-12T13:54:23.433Z,98348.34
2019-01-12T13:56:51.901Z,98347.84
2019-01-12T13:59:20.315Z,98344.02
2019-01-12T14:01:48.714Z,98336.09
2019-01-12T14:04:17.116Z,98330.09
2019-01-12T14:06:45.837Z,98339.66
2019-01-12T14:09:14.243Z,98337.20
2019-01-12T14:11:43.014Z,98319.72
2019-01-12T14:14:11.427Z,98320.29
2019-01-12T14:16:40.059Z,98303.64
2019-01-12T14:19:08.483Z,98295.47
2019-01-12T14:21:37.188Z,98282.94
2019-01-12T14:24:05.598Z,98282.12
2019-01-12T14:26:34.007Z,98282.91
2019-01-12T14:29:02.414Z,98287.55
2019-01-12T14:31:30.824Z,98279.37
2019-01-12T14:33:59.471Z,98278.02
2019-01-12T14:36:28.122Z,98284.55
2019-01-12T14:38:56.530Z,98283.46
2019-01-12T14:41:24.951Z,98273.11
2019-01-12T14:43:53.335Z,98264.10
2019-01-12T14:46:21.754Z,98260.55
2019-01-12T14:48:50.146Z,98266.30
2019-01-12T14:51:18.548Z,98257.03
2019-01-12T14:53:47.293Z,98250.20
2019-01-12T14:56:15.693Z,98245.81
2019-01-12T14:58:44.099Z,98252.91
2019-01-12T15:01:12.529Z,98234.13
2019-01-12T15:03:40.923Z,98230.28
2019-01-12T15:06:09.318Z,98226.47
2019-01-12T15:08:37.733Z,98215.55
2019-01-12T15:11:06.127Z,98222.66
2019-01-12T15:13:34.829Z,98221.02
2019-01-12T15:16:03.242Z,98216.39
2019-01-12T15:18:31.637Z,98216.92
2019-01-12T15:21:00.057Z,98213.92
2019-01-12T15:23:28.459Z,98219.38
2019-01-12T15:25:56.861Z,98214.17
2019-01-12T15:28:37.311Z,98209.82
2019-01-12T15:31:06.075Z,98203.27
2019-01-12T15:33:34.477Z,98209.83
2019-01-12T15:36:02.887Z,98211.73
2019-01-12T15:38:31.598Z,98203.55
2019-01-12T15:41:00.281Z,98202.19
2019-01-12T15:43:28.693Z,98208.73
2019-01-12T15:45:57.077Z,98206.55
2019-01-12T15:48:25.712Z,98204.09
2019-01-12T15:50:54.119Z,98204.09
2019-01-12T15:53:22.525Z,98201.66
2019-01-12T15:55:50.916Z,98188.28
2019-01-12T15:58:19.321Z,98180.10
2019-01-12T16:00:47.710Z,98166.20
2019-01-12T16:03:16.354Z,98170.59
2019-01-12T16:05:45.096Z,98161.56
2019-01-12T16:08:13.780Z,98155.56
2019-01-12T16:10:42.181Z,98160.50
2019-01-12T16:13:10.590Z,98159.39
2019-01-12T16:15:38.980Z,98159.66
2019-01-12T16:18:07.704Z,98159.94
2019-01-12T16:20:36.777Z,98148.48
2019-01-12T16:23:05.585Z,98144.14
2019-01-12T16:25:33.991Z,98136.48
2019-01-12T16:28:02.462Z,98136.50
2019-01-12T16:30:30.851Z,98123.69
2019-01-12T16:32:59.324Z,98126.93
2019-01-12T16:35:27.723Z,98115.20
2019-01-12T16:37:56.119Z,98113.59
2019-01-12T16:40:28.013Z,98109.47
2019-01-12T16:42:56.404Z,98096.40
2019-01-12T16:45:25.043Z,98086.57
2019-01-12T16:47:53.780Z,98083.59
2019-01-12T16:50:22.461Z,98079.22
2019-01-12T16:52:51.161Z,98069.16
2019-01-12T16:55:19.643Z,98064.78
2019-01-12T16:57:48.046Z,98062.84
2019-01-12T17:00:21.953Z,98062.59
2019-01-12T17:02:50.411Z,98062.31
2019-01-12T17:05:19.189Z,98068.30
2019-01-12T17:07:47.661Z,98066.94
2019-01-12T17:10:18.663Z,98068.28
2019-01-12T17:12:47.202Z,98074.53
2019-01-12T17:15:17.981Z,98065.04
2019-01-12T17:17:46.370Z,98065.58
2019-01-12T17:20:19.310Z,98060.09
2019-01-12T17:22:48.268Z,98055.55
2019-01-12T17:25:17.072Z,98051.97
2019-01-12T17:27:45.869Z,98049.78
2019-01-12T17:30:17.516Z,98038.64
2019-01-12T17:32:46.304Z,98038.09
2019-01-12T17:35:14.849Z,98043.05
2019-01-12T17:37:43.547Z,98038.70
2019-01-12T17:40:14.123Z,98043.88
2019-01-12T17:42:42.518Z,98037.08
2019-01-12T17:45:14.376Z,98040.34
2019-01-12T17:47:42.761Z,98036.81
2019-01-12T17:50:13.909Z,98033.00
2019-01-12T17:52:42.653Z,98033.83
2019-01-12T17:55:13.781Z,98028.94
2019-01-12T17:57:42.253Z,98027.30
2019-01-12T18:00:29.679Z,98020.77
2019-01-12T18:02:58.402Z,98024.31
2019-01-12T18:05:27.519Z,98027.03
2019-01-12T18:07:55.943Z,98016.41
2019-01-12T18:10:24.751Z,98018.59
2019-01-12T18:12:53.309Z,98018.34
2019-01-12T18:15:21.691Z,98019.70
2019-01-12T18:17:50.099Z,98008.52
2019-01-12T18:20:19.064Z,98007.47
2019-01-12T18:22:47.594Z,98002.27
2019-01-12T18:25:16.971Z,98000.64
2019-01-12T18:27:45.521Z,98002.01
2019-01-12T18:30:22.104Z,97986.77
2019-01-12T18:32:50.631Z,98000.67
2019-01-12T18:35:19.021Z,97989.48
2019-01-12T18:37:47.492Z,97989.75
2019-01-12T18:40:18.731Z,97983.52
2019-01-12T18:42:47.109Z,97982.97
2019-01-12T18:45:17.651Z,97975.61
2019-01-12T18:47:46.034Z,97967.44
2019-01-12T18:50:17.419Z,97968.52
2019-01-12T18:52:45.881Z,97972.36
2019-01-12T18:55:14.909Z,97959.56
2019-01-12T18:57:43.377Z,97971.27
2019-01-12T19:00:20.083Z,97962.83
2019-01-12T19:02:48.865Z,97969.61
2019-01-12T19:05:17.322Z,97972.09
2019-01-12T19:07:46.032Z,97973.45
2019-01-12T19:10:14.980Z,97958.73
2019-01-12T19:12:43.370Z,97965.55
2019-01-12T19:15:14.892Z,97948.39
2019-01-12T19:17:43.650Z,97958.74
2019-01-12T19:20:12.170Z,97950.55
2019-01-12T19:22:40.620Z,97938.59
2019-01-12T19:25:11.457Z,97943.50
2019-01-12T19:27:39.921Z,97941.59
2019-01-12T19:30:14.716Z,97943.48
2019-01-12T19:32:43.436Z,97936.39
2019-01-12T19:35:11.825Z,97940.76
2019-01-12T19:37:40.218Z,97934.50
2019-01-12T19:40:11.655Z,97935.85
2019-01-12T19:42:40.330Z,97936.41
2019-01-12T19:45:11.254Z,97936.14
2019-01-12T19:47:39.726Z,97928.52
2019-01-12T19:50:17.363Z,97925.79
2019-01-12T19:52:46.137Z,97914.89
2019-01-12T19:55:14.537Z,97901.30
2019-01-12T19:57:43.211Z,97895.03
2019-01-12T20:00:14.541Z,97886.06
2019-01-12T20:02:43.234Z,97878.72
2019-01-12T20:05:11.688Z,97870.83
2019-01-12T20:07:40.242Z,97852.57
2019-01-12T20:10:11.871Z,97858.02
2019-01-12T20:12:40.254Z,97860.23
2019-01-12T20:15:12.226Z,97838.71
2019-01-12T20:17:40.612Z,97856.14
2019-01-12T20:20:12.156Z,97852.88
2019-01-12T20:22:40.911Z,97850.70
2019-01-12T20:25:12.202Z,97846.05
2019-01-12T20:27:40.672Z,97837.89
2019-01-12T20:30:29.796Z,97838.16
2019-01-12T20:33:24.145Z,97847.97
2019-01-12T20:36:21.448Z,97834.65
2019-01-12T20:39:10.771Z,97844.70
2019-01-12T20:41:59.006Z,97845.55
2019-01-12T20:44:30.723Z,97853.17
2019-01-12T20:47:11.158Z,97854.24
2019-01-12T20:49:42.589Z,97848.02
2019-01-12T20:52:31.927Z,97860.52
2019-01-12T20:55:12.467Z,97858.59
2019-01-12T20:57:56.149Z,97854.79
2019-01-12T21:00:44.201Z,97859.16
2019-01-12T21:03:15.650Z,97855.08
2019-01-12T21:06:14.259Z,97855.61
2019-01-12T21:09:05.249Z,97850.71
2019-01-12T21:12:08.308Z,97850.42
2019-01-12T21:14:39.761Z,97833.82
2019-01-12T21:17:08.144Z,97839.55
2019-01-12T21:19:36.597Z,97833.83
2019-01-12T21:22:05.383Z,97829.47
2019-01-12T21:24:33.772Z,97827.56
2019-01-12T21:27:02.446Z,97830.54
2019-01-12T21:29:35.193Z,97826.45
2019-01-12T21:32:01.027Z,97829.98
2019-01-12T21:34:29.736Z,97829.44
2019-01-12T21:36:58.376Z,97820.99
2019-01-12T21:39:26.817Z,97824.26
2019-01-12T21:41:55.207Z,97821.27
2019-01-12T21:44:23.664Z,97822.35
2019-01-12T21:47:11.638Z,97810.10
2019-01-12T21:49:40.023Z,97807.66
2019-01-12T21:52:08.403Z,97810.66
2019-01-12T21:54:36.801Z,97813.93
2019-01-12T21:57:05.186Z,97810.10
2019-01-12T21:59:33.562Z,97807.38
2019-01-12T22:02:02.107Z,97803.86
2019-01-12T22:04:30.527Z,97804.91
2019-01-12T22:06:59.184Z,97805.20
2019-01-12T22:09:27.556Z,97806.56
2019-01-12T22:11:55.937Z,97807.92
2019-01-12T22:14:24.383Z,97806.56
2019-01-12T22:16:52.762Z,97799.24
2019-01-12T22:19:21.464Z,97799.24
2019-01-12T22:21:50.147Z,97800.58
2019-01-12T22:24:18.543Z,97796.27
2019-01-12T22:26:46.930Z,97797.57
2019-01-12T22:29:15.312Z,97797.59
2019-01-12T22:31:43.710Z,97797.06
2019-01-12T22:34:12.102Z,97798.67
2019-01-12T22:36:40.480Z,97797.59
2019-01-12T22:39:09.207Z,97795.98
2019-01-12T22:41:37.900Z,97794.84
2019-01-12T22:44:06.577Z,97790.77
2019-01-12T22:46:34.974Z,97789.41
2019-01-12T22:49:03.643Z,97783.93
2019-01-12T22:51:32.326Z,97791.27
2019-01-12T22:54:01.014Z,97786.40
2019-01-12T22:56:29.639Z,97783.67
2019-01-12T22:58:58.037Z,97784.75
2019-01-12T23:01:29.740Z,97785.29
2019-01-12T23:03:58.129Z,97775.22
2019-01-12T23:06:26.755Z,97774.66
2019-01-12T23:08:55.155Z,97776.87
2019-01-12T23:11:23.544Z,97771.93
2019-01-12T23:13:51.929Z,97780.09
2019-01-12T23:16:20.623Z,97786.62
2019-01-12T23:18:49.307Z,97784.97
2019-01-12T23:21:17.691Z,97778.42
2019-01-12T23:23:46.096Z,97769.45
2019-01-12T23:26:14.477Z,97772.39
2019-01-12T23:28:42.867Z,97775.98
2019-01-12T23:31:11.260Z,97780.34
2019-01-12T23:33:39.640Z,97781.14
2019-01-12T23:36:08.032Z,97777.38
2019-01-12T23:38:36.509Z,97777.34
2019-01-12T23:41:05.166Z,97773.80
2019-01-12T23:43:34.015Z,97774.08
2019-01-12T23:46:02.479Z,97771.57
2019-01-12T23:48:30.873Z,97765.63
2019-01-12T23:50:59.561Z,97763.15
2019-01-12T23:53:27.954Z,97757.16
2019-01-12T23:55:56.335Z,97752.51
2019-01-12T23:58:24.737Z,97753.08
